sensor_id;sensor_type;location;lat;lon;timestamp;pressure;altitude;pressure_sealevel;temperature;humidity
78890;BME280;68279;48.964;14.502;2023-10-09T00:00:06;97779.44;;;8.35;100.00
78890;BME280;68279;48.964;14.502;2023-10-09T00:02:55;97786.63;;;8.35;100.00
78890;BME280;68279;48.964;14.502;2023-10-09T00:05:24;97776.34;;;8.43;100.00
78890;BME280;68279;48.964;14.502;2023-10-09T00:08:06;97776.41;;;8.48;100.00
78890;BME280;68279;48.964;14.502;2023-10-09T00:10:34;97776.78;;;8.57;100.00
78890;BME280;68279;48.964;14.502;2023-10-09T00:13:21;97773.44;;;8.67;100.00
78890;BME280;68279;48.964;14.502;2023-10-09T00:15:57;97770.75;;;8.67;100.00
78890;BME280;68279;48.964;14.502;2023-10-09T00:18:34;97754.31;;;8.75;100.00
78890;BME280;68279;48.964;14.502;2023-10-09T00:21:00;97758.09;;;8.79;100.00
78890;BME280;68279;48.964;14.502;2023-10-09T00:23:29;97747.03;;;8.92;100.00
78890;BME280;68279;48.964;14.502;2023-10-09T00:25:59;97737.47;;;8.96;100.00
78890;BME280;68279;48.964;14.502;2023-10-09T00:28:37;97734.78;;;8.96;100.00
78890;BME280;68279;48.964;14.502;2023-10-09T00:31:04;97737.19;;;8.98;100.00
78890;BME280;68279;48.964;14.502;2023-10-09T00:33:32;97724.13;;;8.96;100.00
78890;BME280;68279;48.964;14.502;2023-10-09T00:36:04;97731.06;;;8.97;100.00
78890;BME280;68279;48.964;14.502;2023-10-09T00:38:38;97723.81;;;8.93;100.00
78890;BME280;68279;48.964;14.502;2023-10-09T00:41:11;97714.16;;;8.87;100.00
78890;BME280;68279;48.964;14.502;2023-10-09T00:43:40;97719.44;;;8.82;100.00
78890;BME280;68279;48.964;14.502;2023-10-09T00:46:09;97700.47;;;8.78;100.00
78890;BME280;68279;48.964;14.502;2023-10-09T00:48:42;97693.28;;;8.78;100.00
78890;BME280;68279;48.964;14.502;2023-10-09T00:51:08;97676.72;;;8.76;100.00
78890;BME280;68279;48.964;14.502;2023-10-09T00:53:51;97682.34;;;8.80;100.00
78890;BME280;68279;48.964;14.502;2023-10-09T00:56:21;97687.41;;;8.82;100.00
78890;BME280;68279;48.964;14.502;2023-10-09T00:58:54;97688.53;;;8.86;100.00
78890;BME280;68279;48.964;14.502;2023-10-09T01:01:46;97687.56;;;8.97;100.00
78890;BME280;68279;48.964;14.502;2023-10-09T01:04:29;97685.75;;;9.02;100.00
78890;BME280;68279;48.964;14.502;2023-10-09T01:07:02;97691.91;;;9.03;100.00
78890;BME280;68279;48.964;14.502;2023-10-09T01:09:50;97685.72;;;8.97;100.00
78890;BME280;68279;48.964;14.502;2023-10-09T01:12:19;97682.75;;;8.94;100.00
78890;BME280;68279;48.964;14.502;2023-10-09T01:14:45;97673.38;;;8.91;100.00
78890;BME280;68279;48.964;14.502;2023-10-09T01:17:10;97677.63;;;8.87;100.00
78890;BME280;68279;48.964;14.502;2023-10-09T01:19:37;97676.50;;;8.83;100.00
78890;BME280;68279;48.964;14.502;2023-10-09T01:22:03;97661.81;;;8.80;100.00
78890;BME280;68279;48.964;14.502;2023-10-09T01:24:47;97658.31;;;8.75;100.00
78890;BME280;68279;48.964;14.502;2023-10-09T01:27:15;97637.47;;;8.72;100.00
78890;BME280;68279;48.964;14.502;2023-10-09T01:29:41;97640.09;;;8.67;100.00
78890;BME280;68279;48.964;14.502;2023-10-09T01:32:07;97630.50;;;8.66;100.00
78890;BME280;68279;48.964;14.502;2023-10-09T01:34:42;97638.97;;;8.63;100.00
78890;BME280;68279;48.964;14.502;2023-10-09T01:37:19;97627.22;;;8.59;100.00
78890;BME280;68279;48.964;14.502;2023-10-09T01:39:49;97621.31;;;8.57;100.00
78890;BME280;68279;48.964;14.502;2023-10-09T01:42:16;97619.16;;;8.54;100.00
78890;BME280;68279;48.964;14.502;2023-10-09T01:45:02;97611.41;;;8.52;100.00
78890;BME280;68279;48.964;14.502;2023-10-09T01:47:37;97602.00;;;8.44;100.00
78890;BME280;68279;48.964;14.502;2023-10-09T01:50:04;97590.63;;;8.49;100.00
78890;BME280;68279;48.964;14.502;2023-10-09T01:52:30;97582.28;;;8.45;100.00
78890;BME280;68279;48.964;14.502;2023-10-09T01:54:56;97586.03;;;8.44;100.00
78890;BME280;68279;48.964;14.502;2023-10-09T01:57:30;97586.09;;;8.49;100.00
78890;BME280;68279;48.964;14.502;2023-10-09T01:59:55;97582.09;;;8.52;100.00
78890;BME280;68279;48.964;14.502;2023-10-09T02:02:25;97569.22;;;8.44;100.00
78890;BME280;68279;48.964;14.502;2023-10-09T02:05:01;97575.91;;;8.46;100.00
78890;BME280;68279;48.964;14.502;2023-10-09T02:07:50;97569.84;;;8.51;100.00
78890;BME280;68279;48.964;14.502;2023-10-09T02:10:19;97568.78;;;8.52;100.00
78890;BME280;68279;48.964;14.502;2023-10-09T02:15:27;97557.81;;;8.48;100.00
78890;BME280;68279;48.964;14.502;2023-10-09T02:18:09;97563.72;;;8.56;100.00
78890;BME280;68279;48.964;14.502;2023-10-09T02:21:06;97557.34;;;8.57;100.00
78890;BME280;68279;48.964;14.502;2023-10-09T02:23:34;97555.25;;;8.59;100.00
78890;BME280;68279;48.964;14.502;2023-10-09T02:26:06;97556.63;;;8.66;100.00
78890;BME280;68279;48.964;14.502;2023-10-09T02:28:33;97569.19;;;8.71;100.00
78890;BME280;68279;48.964;14.502;2023-10-09T02:31:00;97556.91;;;8.70;100.00
78890;BME280;68279;48.964;14.502;2023-10-09T02:33:36;97554.19;;;8.60;100.00
78890;BME280;68279;48.964;14.502;2023-10-09T02:36:08;97539.72;;;8.50;100.00
78890;BME280;68279;48.964;14.502;2023-10-09T02:38:34;97536.78;;;8.52;100.00
78890;BME280;68279;48.964;14.502;2023-10-09T02:41:03;97531.19;;;8.54;100.00
78890;BME280;68279;48.964;14.502;2023-10-09T02:43:37;97522.44;;;8.58;100.00
78890;BME280;68279;48.964;14.502;2023-10-09T02:46:17;97516.59;;;8.61;100.00
78890;BME280;68279;48.964;14.502;2023-10-09T02:48:49;97508.66;;;8.66;100.00
78890;BME280;68279;48.964;14.502;2023-10-09T02:51:22;97500.13;;;8.69;100.00
78890;BME280;68279;48.964;14.502;2023-10-09T02:53:54;97490.53;;;8.68;100.00
78890;BME280;68279;48.964;14.502;2023-10-09T02:56:21;97490.78;;;8.72;100.00
78890;BME280;68279;48.964;14.502;2023-10-09T02:58:51;97485.25;;;8.78;100.00
78890;BME280;68279;48.964;14.502;2023-10-09T03:01:16;97482.84;;;8.82;100.00
78890;BME280;68279;48.964;14.502;2023-10-09T03:03:42;97478.91;;;8.85;100.00
78890;BME280;68279;48.964;14.502;2023-10-09T03:06:13;97477.03;;;8.90;100.00
78890;BME280;68279;48.964;14.502;2023-10-09T03:08:39;97464.31;;;9.02;100.00
78890;BME280;68279;48.964;14.502;2023-10-09T03:11:08;97462.47;;;9.03;100.00
78890;BME280;68279;48.964;14.502;2023-10-09T03:13:41;97465.94;;;9.08;100.00
78890;BME280;68279;48.964;14.502;2023-10-09T03:16:09;97461.41;;;9.09;100.00
78890;BME280;68279;48.964;14.502;2023-10-09T03:18:40;97454.50;;;9.13;100.00
78890;BME280;68279;48.964;14.502;2023-10-09T03:21:05;97450.53;;;9.21;100.00
78890;BME280;68279;48.964;14.502;2023-10-09T03:23:31;97439.84;;;9.21;100.00
78890;BME280;68279;48.964;14.502;2023-10-09T03:25:57;97433.44;;;9.22;100.00
78890;BME280;68279;48.964;14.502;2023-10-09T03:28:24;97430.47;;;9.18;100.00
78890;BME280;68279;48.964;14.502;2023-10-09T03:30:50;97427.59;;;9.20;100.00
78890;BME280;68279;48.964;14.502;2023-10-09T03:33:17;97429.19;;;9.21;100.00
78890;BME280;68279;48.964;14.502;2023-10-09T03:35:42;97428.13;;;9.27;100.00
78890;BME280;68279;48.964;14.502;2023-10-09T03:38:08;97433.50;;;9.42;100.00
78890;BME280;68279;48.964;14.502;2023-10-09T03:40:47;97418.03;;;9.44;100.00
78890;BME280;68279;48.964;14.502;2023-10-09T03:43:14;97422.84;;;9.37;100.00
78890;BME280;68279;48.964;14.502;2023-10-09T03:45:40;97415.34;;;9.34;100.00
78890;BME280;68279;48.964;14.502;2023-10-09T03:48:18;97415.88;;;9.31;100.00
78890;BME280;68279;48.964;14.502;2023-10-09T03:50:58;97409.19;;;9.33;100.00
78890;BME280;68279;48.964;14.502;2023-10-09T03:53:50;97402.53;;;9.31;100.00
78890;BME280;68279;48.964;14.502;2023-10-09T03:56:19;97403.56;;;9.25;100.00
78890;BME280;68279;48.964;14.502;2023-10-09T03:58:50;97397.69;;;9.23;100.00
78890;BME280;68279;48.964;14.502;2023-10-09T04:01:20;97397.94;;;9.16;100.00
78890;BME280;68279;48.964;14.502;2023-10-09T04:03:56;97384.28;;;9.07;100.00
78890;BME280;68279;48.964;14.502;2023-10-09T04:06:28;97389.84;;;9.01;100.00
78890;BME280;68279;48.964;14.502;2023-10-09T04:09:04;97382.13;;;8.99;100.00
78890;BME280;68279;48.964;14.502;2023-10-09T04:11:52;97376.75;;;8.89;100.00
78890;BME280;68279;48.964;14.502;2023-10-09T04:14:50;97367.19;;;8.93;100.00
78890;BME280;68279;48.964;14.502;2023-10-09T04:17:20;97357.84;;;9.01;100.00
78890;BME280;68279;48.964;14.502;2023-10-09T04:19:55;97354.38;;;8.95;100.00
78890;BME280;68279;48.964;14.502;2023-10-09T04:22:46;97351.22;;;9.08;100.00
78890;BME280;68279;48.964;14.502;2023-10-09T04:25:31;97347.75;;;9.03;100.00
78890;BME280;68279;48.964;14.502;2023-10-09T04:28:09;97345.03;;;8.98;100.00
78890;BME280;68279;48.964;14.502;2023-10-09T04:30:38;97340.25;;;8.95;100.00
78890;BME280;68279;48.964;14.502;2023-10-09T04:33:11;97333.66;;;9.23;100.00
78890;BME280;68279;48.964;14.502;2023-10-09T04:35:48;97325.38;;;9.34;100.00
78890;BME280;68279;48.964;14.502;2023-10-09T04:38:33;97308.84;;;9.38;100.00
78890;BME280;68279;48.964;14.502;2023-10-09T04:40:59;97308.31;;;9.51;100.00
78890;BME280;68279;48.964;14.502;2023-10-09T04:43:25;97298.72;;;9.55;100.00
78890;BME280;68279;48.964;14.502;2023-10-09T04:45:52;97300.03;;;9.52;100.00
78890;BME280;68279;48.964;14.502;2023-10-09T04:48:38;97291.50;;;9.65;100.00
78890;BME280;68279;48.964;14.502;2023-10-09T04:51:08;97289.91;;;9.70;100.00
78890;BME280;68279;48.964;14.502;2023-10-09T04:53:51;97282.13;;;9.88;100.00
78890;BME280;68279;48.964;14.502;2023-10-09T04:56:46;97274.66;;;9.80;100.00
78890;BME280;68279;48.964;14.502;2023-10-09T04:59:18;97271.19;;;9.85;100.00
78890;BME280;68279;48.964;14.502;2023-10-09T05:01:44;97271.19;;;9.90;100.00
78890;BME280;68279;48.964;14.502;2023-10-09T05:04:15;97273.31;;;9.88;100.00
78890;BME280;68279;48.964;14.502;2023-10-09T05:06:51;97266.91;;;9.89;100.00
78890;BME280;68279;48.964;14.502;2023-10-09T05:09:21;97275.19;;;9.87;100.00
78890;BME280;68279;48.964;14.502;2023-10-09T05:11:47;97268.28;;;9.81;100.00
78890;BME280;68279;48.964;14.502;2023-10-09T05:14:34;97260.75;;;9.88;100.00
78890;BME280;68279;48.964;14.502;2023-10-09T05:17:05;97265.03;;;10.00;100.00
78890;BME280;68279;48.964;14.502;2023-10-09T05:19:35;97256.47;;;10.08;100.00
78890;BME280;68279;48.964;14.502;2023-10-09T05:22:19;97263.69;;;9.97;100.00
78890;BME280;68279;48.964;14.502;2023-10-09T05:25:03;97264.22;;;10.04;100.00
78890;BME280;68279;48.964;14.502;2023-10-09T05:27:40;97253.50;;;10.19;100.00
78890;BME280;68279;48.964;14.502;2023-10-09T05:30:15;97246.28;;;10.15;100.00
78890;BME280;68279;48.964;14.502;2023-10-09T05:32:55;97243.84;;;10.39;100.00
78890;BME280;68279;48.964;14.502;2023-10-09T05:35:24;97249.94;;;10.49;100.00
78890;BME280;68279;48.964;14.502;2023-10-09T05:38:08;97243.25;;;10.52;100.00
78890;BME280;68279;48.964;14.502;2023-10-09T05:40:50;97238.09;;;10.66;100.00
78890;BME280;68279;48.964;14.502;2023-10-09T05:43:20;97243.16;;;10.67;100.00
78890;BME280;68279;48.964;14.502;2023-10-09T05:46:05;97246.28;;;10.85;100.00
78890;BME280;68279;48.964;14.502;2023-10-09T05:48:35;97260.63;;;11.04;100.00
78890;BME280;68279;48.964;14.502;2023-10-09T05:51:03;97254.16;;;11.10;100.00
78890;BME280;68279;48.964;14.502;2023-10-09T05:53:35;97251.78;;;11.09;100.00
78890;BME280;68279;48.964;14.502;2023-10-09T05:56:10;97246.56;;;11.27;100.00
78890;BME280;68279;48.964;14.502;2023-10-09T05:58:54;97237.63;;;11.42;100.00
78890;BME280;68279;48.964;14.502;2023-10-09T06:01:32;97245.34;;;11.49;100.00
78890;BME280;68279;48.964;14.502;2023-10-09T06:04:17;97241.81;;;11.53;100.00
78890;BME280;68279;48.964;14.502;2023-10-09T06:06:44;97241.97;;;11.67;100.00
78890;BME280;68279;48.964;14.502;2023-10-09T06:09:14;97254.22;;;11.73;100.00
78890;BME280;68279;48.964;14.502;2023-10-09T06:11:45;97254.50;;;11.72;100.00
78890;BME280;68279;48.964;14.502;2023-10-09T06:14:21;97254.97;;;11.84;100.00
78890;BME280;68279;48.964;14.502;2023-10-09T06:16:56;97252.47;;;11.93;100.00
78890;BME280;68279;48.964;14.502;2023-10-09T06:19:22;97257.75;;;12.03;100.00
78890;BME280;68279;48.964;14.502;2023-10-09T06:21:48;97250.38;;;12.13;100.00
78890;BME280;68279;48.964;14.502;2023-10-09T06:24:30;97249.00;;;12.16;100.00
78890;BME280;68279;48.964;14.502;2023-10-09T06:27:07;97252.66;;;12.25;100.00
78890;BME280;68279;48.964;14.502;2023-10-09T06:29:32;97256.59;;;12.33;100.00
78890;BME280;68279;48.964;14.502;2023-10-09T06:32:05;97261.00;;;12.47;100.00
78890;BME280;68279;48.964;14.502;2023-10-09T06:34:47;97265.47;;;12.57;100.00
78890;BME280;68279;48.964;14.502;2023-10-09T06:37:40;97266.16;;;12.63;100.00
78890;BME280;68279;48.964;14.502;2023-10-09T06:40:36;97277.59;;;12.73;100.00
78890;BME280;68279;48.964;14.502;2023-10-09T06:43:20;97273.75;;;12.80;100.00
78890;BME280;68279;48.964;14.502;2023-10-09T06:45:47;97273.63;;;12.90;100.00
78890;BME280;68279;48.964;14.502;2023-10-09T06:48:20;97269.72;;;13.01;100.00
78890;BME280;68279;48.964;14.502;2023-10-09T06:51:06;97269.06;;;13.09;100.00
78890;BME280;68279;48.964;14.502;2023-10-09T06:53:57;97267.63;;;13.17;100.00
78890;BME280;68279;48.964;14.502;2023-10-09T06:56:31;97275.03;;;13.25;99.79
78890;BME280;68279;48.964;14.502;2023-10-09T06:59:04;97266.84;;;13.35;98.62
78890;BME280;68279;48.964;14.502;2023-10-09T07:01:40;97262.41;;;13.44;97.51
78890;BME280;68279;48.964;14.502;2023-10-09T07:04:10;97268.41;;;13.55;98.74
78890;BME280;68279;48.964;14.502;2023-10-09T07:06:45;97273.94;;;13.64;97.57
78890;BME280;68279;48.964;14.502;2023-10-09T07:09:11;97284.56;;;13.69;96.69
78890;BME280;68279;48.964;14.502;2023-10-09T07:11:39;97276.88;;;13.81;96.05
78890;BME280;68279;48.964;14.502;2023-10-09T07:14:05;97287.25;;;13.87;96.77
78890;BME280;68279;48.964;14.502;2023-10-09T07:16:33;97287.81;;;13.84;97.57
78890;BME280;68279;48.964;14.502;2023-10-09T07:19:05;97285.06;;;13.89;97.42
78890;BME280;68279;48.964;14.502;2023-10-09T07:21:49;97282.78;;;13.97;97.43
78890;BME280;68279;48.964;14.502;2023-10-09T07:24:20;97285.88;;;14.04;96.05
78890;BME280;68279;48.964;14.502;2023-10-09T07:27:05;97289.59;;;14.08;97.10
78890;BME280;68279;48.964;14.502;2023-10-09T07:29:37;97293.47;;;14.15;95.07
78890;BME280;68279;48.964;14.502;2023-10-09T07:32:16;97295.19;;;14.25;94.29
78890;BME280;68279;48.964;14.502;2023-10-09T07:34:50;97291.59;;;14.30;94.17
78890;BME280;68279;48.964;14.502;2023-10-09T07:37:23;97294.69;;;14.23;97.00
78890;BME280;68279;48.964;14.502;2023-10-09T07:39:52;97291.31;;;14.31;96.44
78890;BME280;68279;48.964;14.502;2023-10-09T07:42:24;97293.59;;;14.38;94.66
78890;BME280;68279;48.964;14.502;2023-10-09T07:45:12;97294.91;;;14.40;93.94
78890;BME280;68279;48.964;14.502;2023-10-09T07:47:58;97294.31;;;14.43;95.76
78890;BME280;68279;48.964;14.502;2023-10-09T07:50:44;97296.13;;;14.48;94.72
78890;BME280;68279;48.964;14.502;2023-10-09T07:53:25;97300.72;;;14.48;95.42
78890;BME280;68279;48.964;14.502;2023-10-09T07:55:55;97310.47;;;14.43;93.58
78890;BME280;68279;48.964;14.502;2023-10-09T07:58:26;97308.06;;;14.42;95.78
78890;BME280;68279;48.964;14.502;2023-10-09T08:00:55;97298.81;;;14.48;93.64
78890;BME280;68279;48.964;14.502;2023-10-09T08:03:42;97305.06;;;14.43;93.08
78890;BME280;68279;48.964;14.502;2023-10-09T08:06:11;97312.53;;;14.33;94.72
78890;BME280;68279;48.964;14.502;2023-10-09T08:08:56;97329.19;;;14.35;93.90
78890;BME280;68279;48.964;14.502;2023-10-09T08:11:29;97328.09;;;14.03;96.71
78890;BME280;68279;48.964;14.502;2023-10-09T08:14:14;97332.69;;;14.03;95.80
78890;BME280;68279;48.964;14.502;2023-10-09T08:16:58;97326.66;;;13.78;96.05
78890;BME280;68279;48.964;14.502;2023-10-09T08:19:48;97316.91;;;13.82;96.23
78890;BME280;68279;48.964;14.502;2023-10-09T08:22:27;97311.97;;;14.03;96.14
78890;BME280;68279;48.964;14.502;2023-10-09T08:24:56;97328.41;;;14.02;94.99
78890;BME280;68279;48.964;14.502;2023-10-09T08:27:22;97338.09;;;13.84;95.23
78890;BME280;68279;48.964;14.502;2023-10-09T08:30:00;97338.63;;;13.67;95.65
78890;BME280;68279;48.964;14.502;2023-10-09T08:32:45;97342.72;;;13.46;94.92
78890;BME280;68279;48.964;14.502;2023-10-09T08:35:36;97346.41;;;13.50;96.33
78890;BME280;68279;48.964;14.502;2023-10-09T08:38:15;97343.50;;;13.65;95.41
78890;BME280;68279;48.964;14.502;2023-10-09T08:40:43;97353.94;;;13.85;94.23
78890;BME280;68279;48.964;14.502;2023-10-09T08:48:13;97362.69;;;13.58;95.06
78890;BME280;68279;48.964;14.502;2023-10-09T08:50:42;97374.91;;;13.70;93.98
78890;BME280;68279;48.964;14.502;2023-10-09T08:53:12;97381.44;;;13.64;91.93
78890;BME280;68279;48.964;14.502;2023-10-09T08:55:38;97378.09;;;13.34;94.15
78890;BME280;68279;48.964;14.502;2023-10-09T08:58:07;97377.50;;;13.56;94.05
78890;BME280;68279;48.964;14.502;2023-10-09T09:00:44;97378.13;;;13.85;91.19
78890;BME280;68279;48.964;14.502;2023-10-09T09:03:18;97388.47;;;13.97;89.43
78890;BME280;68279;48.964;14.502;2023-10-09T09:05:48;97382.72;;;13.85;90.78
78890;BME280;68279;48.964;14.502;2023-10-09T09:08:22;97382.06;;;13.93;91.66
78890;BME280;68279;48.964;14.502;2023-10-09T09:11:17;97395.34;;;14.03;88.97
78890;BME280;68279;48.964;14.502;2023-10-09T09:13:59;97401.09;;;14.15;90.12
78890;BME280;68279;48.964;14.502;2023-10-09T09:16:34;97401.09;;;14.29;89.48
78890;BME280;68279;48.964;14.502;2023-10-09T09:19:07;97398.16;;;14.12;92.08
78890;BME280;68279;48.964;14.502;2023-10-09T09:21:57;97403.22;;;14.00;90.30
78890;BME280;68279;48.964;14.502;2023-10-09T09:24:25;97414.19;;;13.84;91.10
78890;BME280;68279;48.964;14.502;2023-10-09T09:26:54;97413.09;;;13.67;92.19
78890;BME280;68279;48.964;14.502;2023-10-09T09:29:40;97414.38;;;13.50;91.08
78890;BME280;68279;48.964;14.502;2023-10-09T09:32:09;97411.38;;;13.33;91.78
78890;BME280;68279;48.964;14.502;2023-10-09T09:34:47;97417.72;;;13.42;92.92
78890;BME280;68279;48.964;14.502;2023-10-09T09:37:25;97413.81;;;13.35;92.42
78890;BME280;68279;48.964;14.502;2023-10-09T09:40:03;97418.72;;;13.27;94.66
78890;BME280;68279;48.964;14.502;2023-10-09T09:42:43;97423.81;;;13.29;94.63
78890;BME280;68279;48.964;14.502;2023-10-09T09:45:14;97427.25;;;13.35;96.36
78890;BME280;68279;48.964;14.502;2023-10-09T09:47:43;97424.91;;;13.47;99.12
78890;BME280;68279;48.964;14.502;2023-10-09T09:50:17;97412.94;;;13.39;98.41
78890;BME280;68279;48.964;14.502;2023-10-09T09:52:54;97433.28;;;13.45;98.55
78890;BME280;68279;48.964;14.502;2023-10-09T09:55:26;97432.88;;;13.33;98.30
78890;BME280;68279;48.964;14.502;2023-10-09T09:57:57;97421.41;;;13.27;99.17
78890;BME280;68279;48.964;14.502;2023-10-09T10:00:27;97434.78;;;13.09;100.00
78890;BME280;68279;48.964;14.502;2023-10-09T10:03:54;97429.28;;;13.19;97.55
78890;BME280;68279;48.964;14.502;2023-10-09T10:06:00;97422.06;;;13.14;100.00
78890;BME280;68279;48.964;14.502;2023-10-09T10:08:35;97428.97;;;13.25;100.00
78890;BME280;68279;48.964;14.502;2023-10-09T10:11:05;97431.50;;;13.12;100.00
78890;BME280;68279;48.964;14.502;2023-10-09T10:16:15;97427.50;;;13.09;100.00
78890;BME280;68279;48.964;14.502;2023-10-09T10:21:26;97429.88;;;12.87;100.00
78890;BME280;68279;48.964;14.502;2023-10-09T10:24:01;97426.53;;;12.76;100.00
78890;BME280;68279;48.964;14.502;2023-10-09T10:26:37;97427.72;;;12.89;99.65
78890;BME280;68279;48.964;14.502;2023-10-09T10:29:18;97419.03;;;12.97;98.25
78890;BME280;68279;48.964;14.502;2023-10-09T10:34:23;97431.31;;;13.03;99.12
78890;BME280;68279;48.964;14.502;2023-10-09T10:36:52;97436.53;;;13.18;98.08
78890;BME280;68279;48.964;14.502;2023-10-09T10:39:24;97429.13;;;13.34;97.17
78890;BME280;68279;48.964;14.502;2023-10-09T10:42:08;97418.31;;;13.58;90.85
78890;BME280;68279;48.964;14.502;2023-10-09T10:44:52;97427.34;;;13.67;91.00
78890;BME280;68279;48.964;14.502;2023-10-09T10:47:26;97415.28;;;13.83;89.27
78890;BME280;68279;48.964;14.502;2023-10-09T10:49:58;97424.22;;;13.98;88.84
78890;BME280;68279;48.964;14.502;2023-10-09T10:52:25;97419.09;;;14.15;89.02
78890;BME280;68279;48.964;14.502;2023-10-09T10:55:14;97421.88;;;14.10;89.16
78890;BME280;68279;48.964;14.502;2023-10-09T10:57:44;97423.69;;;14.14;88.83
78890;BME280;68279;48.964;14.502;2023-10-09T11:00:21;97426.50;;;14.23;85.60
78890;BME280;68279;48.964;14.502;2023-10-09T11:03:06;97432.97;;;14.22;86.12
78890;BME280;68279;48.964;14.502;2023-10-09T11:05:43;97431.47;;;14.16;88.72
78890;BME280;68279;48.964;14.502;2023-10-09T11:08:16;97417.88;;;14.07;88.21
78890;BME280;68279;48.964;14.502;2023-10-09T11:10:50;97416.06;;;13.84;91.29
78890;BME280;68279;48.964;14.502;2023-10-09T11:13:26;97410.63;;;13.89;90.79
78890;BME280;68279;48.964;14.502;2023-10-09T11:15:57;97407.16;;;13.88;93.78
78890;BME280;68279;48.964;14.502;2023-10-09T11:18:41;97412.38;;;13.99;93.55
78890;BME280;68279;48.964;14.502;2023-10-09T11:21:15;97409.38;;;14.00;93.78
78890;BME280;68279;48.964;14.502;2023-10-09T11:23:42;97405.09;;;13.99;94.75
78890;BME280;68279;48.964;14.502;2023-10-09T11:26:17;97393.56;;;14.12;87.82
78890;BME280;68279;48.964;14.502;2023-10-09T11:29:14;97399.09;;;14.21;89.11
78890;BME280;68279;48.964;14.502;2023-10-09T11:32:02;97404.09;;;14.28;91.14
78890;BME280;68279;48.964;14.502;2023-10-09T11:34:31;97406.88;;;14.23;91.63
78890;BME280;68279;48.964;14.502;2023-10-09T11:39:35;97391.94;;;14.30;87.56
78890;BME280;68279;48.964;14.502;2023-10-09T11:42:06;97398.41;;;14.29;89.62
78890;BME280;68279;48.964;14.502;2023-10-09T11:44:42;97397.13;;;14.27;90.23
78890;BME280;68279;48.964;14.502;2023-10-09T11:47:11;97397.53;;;14.34;90.52
78890;BME280;68279;48.964;14.502;2023-10-09T11:49:59;97405.03;;;14.37;90.95
78890;BME280;68279;48.964;14.502;2023-10-09T11:52:28;97408.50;;;14.37;90.48
78890;BME280;68279;48.964;14.502;2023-10-09T11:54:58;97414.97;;;14.36;92.01
78890;BME280;68279;48.964;14.502;2023-10-09T11:57:25;97407.28;;;14.30;92.35
78890;BME280;68279;48.964;14.502;2023-10-09T12:00:05;97411.88;;;14.29;91.55
78890;BME280;68279;48.964;14.502;2023-10-09T12:02:50;97408.75;;;14.22;92.10
78890;BME280;68279;48.964;14.502;2023-10-09T12:05:15;97405.88;;;14.18;88.84
78890;BME280;68279;48.964;14.502;2023-10-09T12:07:47;97409.81;;;14.07;90.17
78890;BME280;68279;48.964;14.502;2023-10-09T12:10:21;97407.91;;;14.08;88.03
78890;BME280;68279;48.964;14.502;2023-10-09T12:12:54;97419.63;;;13.98;92.07
78890;BME280;68279;48.964;14.502;2023-10-09T12:15:24;97403.66;;;13.88;92.35
78890;BME280;68279;48.964;14.502;2023-10-09T12:17:50;97400.69;;;13.71;95.63
78890;BME280;68279;48.964;14.502;2023-10-09T12:20:19;97403.53;;;13.79;95.76
78890;BME280;68279;48.964;14.502;2023-10-09T12:23:01;97394.06;;;13.82;97.68
78890;BME280;68279;48.964;14.502;2023-10-09T12:25:30;97396.38;;;13.88;95.80
78890;BME280;68279;48.964;14.502;2023-10-09T12:28:00;97395.13;;;14.00;94.31
78890;BME280;68279;48.964;14.502;2023-10-09T12:30:28;97402.38;;;14.18;97.87
78890;BME280;68279;48.964;14.502;2023-10-09T12:32:55;97392.06;;;14.39;98.92
78890;BME280;68279;48.964;14.502;2023-10-09T12:35:26;97391.63;;;14.51;90.82
78890;BME280;68279;48.964;14.502;2023-10-09T12:37:52;97382.78;;;14.64;94.12
78890;BME280;68279;48.964;14.502;2023-10-09T12:40:22;97385.16;;;14.65;94.84
78890;BME280;68279;48.964;14.502;2023-10-09T12:42:54;97375.00;;;14.62;92.94
78890;BME280;68279;48.964;14.502;2023-10-09T12:45:25;97370.97;;;14.46;90.55
78890;BME280;68279;48.964;14.502;2023-10-09T12:47:55;97372.44;;;14.38;93.40
78890;BME280;68279;48.964;14.502;2023-10-09T12:50:36;97372.78;;;14.18;94.49
78890;BME280;68279;48.964;14.502;2023-10-09T12:53:08;97367.22;;;14.14;92.81
78890;BME280;68279;48.964;14.502;2023-10-09T12:55:37;97370.25;;;14.08;95.55
78890;BME280;68279;48.964;14.502;2023-10-09T12:58:08;97373.13;;;13.98;95.57
78890;BME280;68279;48.964;14.502;2023-10-09T13:00:38;97374.16;;;13.83;99.27
78890;BME280;68279;48.964;14.502;2023-10-09T13:03:11;97379.38;;;13.74;99.09
78890;BME280;68279;48.964;14.502;2023-10-09T13:05:50;97381.34;;;13.87;100.00
78890;BME280;68279;48.964;14.502;2023-10-09T13:08:24;97367.06;;;14.06;100.00
78890;BME280;68279;48.964;14.502;2023-10-09T13:10:52;97352.03;;;14.05;100.00
78890;BME280;68279;48.964;14.502;2023-10-09T13:13:25;97349.47;;;14.13;100.00
78890;BME280;68279;48.964;14.502;2023-10-09T13:16:01;97333.91;;;14.10;100.00
78890;BME280;68279;48.964;14.502;2023-10-09T13:18:31;97327.91;;;14.00;100.00
78890;BME280;68279;48.964;14.502;2023-10-09T13:20:57;97327.19;;;13.94;100.00
78890;BME280;68279;48.964;14.502;2023-10-09T13:23:23;97306.41;;;14.00;100.00
78890;BME280;68279;48.964;14.502;2023-10-09T13:25:57;97306.56;;;13.89;100.00
78890;BME280;68279;48.964;14.502;2023-10-09T13:28:28;97303.75;;;13.81;100.00
78890;BME280;68279;48.964;14.502;2023-10-09T13:30:54;97298.94;;;13.78;100.00
78890;BME280;68279;48.964;14.502;2023-10-09T13:33:20;97295.38;;;13.82;100.00
78890;BME280;68279;48.964;14.502;2023-10-09T13:35:47;97303.38;;;13.87;100.00
78890;BME280;68279;48.964;14.502;2023-10-09T13:38:16;97310.47;;;13.97;100.00
78890;BME280;68279;48.964;14.502;2023-10-09T13:40:42;97329.56;;;13.96;100.00